Impacts METAR Board
IDs:

KCLE - Cleveland/Hopkins In, OH, US

Updated at: 1100 UTC 17 Dec 2018
Potential Impact None Slight Moderate High
Time 16/23Z 17/00Z 17/01Z 17/02Z 17/03Z 17/04Z 17/05Z 17/06Z 17/07Z 17/08Z 17/09Z 17/10Z 17/11Z
Temp38 38 38 39 39 38 37 37 36 36 35 34 34
Dewpt35 35 35 35 36 36 34 34 32 31 30 30 30
Altim30.04 30.04 30.02 30.03 30.03 30.02 30.00 29.97 29.95 29.97 29.95 29.94 29.97
VIS10 9 8 7 7 6 7 7 9 10 10 10 10
CIG8 9 8 9 -- -- -- -- -- -- -- -- --
CoverBKNOVCOVCBKNFEWSCTSCTFEWCLRCLRSCTFEWSCT
FltCatIFRIFRIFRIFRVFRVFRVFRVFRVFRVFRVFRVFRVFR
WX----------BR--------------
WDir260210190220230230230210220230230220260
WSpd5 4 9 9 7 8 8 9 7 7 6 6 9
WGst-- -- -- -- -- -- -- -- -- -- -- -- --
Raw hourly METARs
KCLE 162251Z 26005KT 10SM BKN008 03/02 A3004 RMK AO2 SLP178 T00330017
KCLE 162351Z 21004KT 9SM OVC009 03/02 A3004 RMK AO2 SLP176 T00330017 10089 20022 50007
KCLE 170051Z 19009KT 8SM OVC008 03/02 A3002 RMK AO2 SLP172 T00330017
KCLE 170151Z 22009KT 7SM BKN009 04/02 A3003 RMK AO2 SLP175 T00390017
KCLE 170251Z 23007KT 7SM FEW009 04/02 A3003 RMK AO2 SLP174 T00390022 56002
KCLE 170351Z 23008KT 6SM BR FEW010 SCT250 03/02 A3002 RMK AO2 SLP169 T00330022
KCLE 170451Z 23008KT 7SM SCT250 03/01 A3000 RMK AO2 SLP163 T00280011 400890022
KCLE 170551Z 21009KT 7SM FEW250 03/01 A2997 RMK AO2 SLP153 T00280011 10039 20028 58020
KCLE 170651Z 22007KT 9SM CLR 02/00 A2995 RMK AO2 SLP147 T00220000
KCLE 170751Z 23007KT 10SM CLR 02/M01 A2997 RMK AO2 SLP154 T00221006
KCLE 170851Z 23006KT 10SM SCT250 02/M01 A2995 RMK AO2 SLP147 T00171011 58006
KCLE 170951Z 22006KT 10SM FEW250 01/M01 A2994 RMK AO2 SLP146 T00111011
KCLE 171051Z 26009KT 10SM SCT250 01/M01 A2997 RMK AO2 SLP155 T00111011



Page loaded:  11:38 UTC  |   03:38 AM Pacific  |   04:38 AM Mountain  |   05:38 AM Central  |   06:38 AM Eastern

 

ADVISORIES

FORECASTS

FORECASTS

OBSERVATIONS

USER TOOLS

ABOUT US